Search for airport 
image banner adimage banner adimage banner ad
image banner ad

06CA - Sce Solar I

Located in Yermo, United States

ICAO - 06CA, IATA -

Data provided by Airmate  

General information

Coordinates: N34°52'8" W116°49'55"
Elevation is 1942 feet MSL.
Magnetic variation is 14° East
View others Airports in California

Operational data

Special qualification required
Current time UTC:
Current local time:
Weather at : KDAG - Barstow-Daggett ( 4 km )
METAR: KDAG 240750Z AUTO 29003KT 10SM BKN110 22/17 A2995 RMK AO2 SLP119 T02220172 403280222
TAF: KDAG 240520Z 2406/2506 VRB05KT P6SM VCTS BKN100CB FM240800 27008KT P6SM SCT100 FM241600 31007KT P6SM FEW100 FM242200 26015G25KT P6SM SKC
View NOTAMs / SUP AIP / TFR affecting this airport [VIEW]
Communications frequencies: [VIEW]

Runways:

Airport contact information

Address: Yermo United States

Satellite view of 06CA